createdAt,value
2023-09-10T00:00:23.944Z,23.60
2023-09-10T00:03:09.282Z,23.60
2023-09-10T00:05:54.974Z,23.70
2023-09-10T00:08:40.586Z,23.60
2023-09-10T00:11:26.764Z,23.60
2023-09-10T00:14:12.385Z,23.50
2023-09-10T00:16:58.219Z,23.40
2023-09-10T00:19:43.774Z,23.40
2023-09-10T00:22:29.556Z,23.40
2023-09-10T00:25:15.294Z,23.40
2023-09-10T00:28:01.024Z,23.30
2023-09-10T00:30:55.889Z,23.30
2023-09-10T00:33:41.910Z,23.30
2023-09-10T00:36:27.101Z,23.30
2023-09-10T00:39:13.064Z,23.20
2023-09-10T00:41:58.765Z,23.20
2023-09-10T00:44:44.602Z,23.10
2023-09-10T00:47:30.429Z,24.00
2023-09-10T00:50:16.428Z,23.10
2023-09-10T00:53:02.626Z,23.00
2023-09-10T00:55:48.426Z,23.00
2023-09-10T00:58:33.609Z,23.00
2023-09-10T01:01:19.816Z,23.00
2023-09-10T01:04:05.840Z,23.00
2023-09-10T01:06:52.545Z,23.00
2023-09-10T01:09:38.086Z,23.00
2023-09-10T01:12:33.003Z,22.90
2023-09-10T01:15:40.410Z,22.90
2023-09-10T01:18:52.479Z,22.80
2023-09-10T01:21:44.128Z,22.70
2023-09-10T01:24:40.150Z,22.70
2023-09-10T01:27:25.986Z,22.70
2023-09-10T01:30:12.220Z,22.70
2023-09-10T01:33:00.234Z,22.60
2023-09-10T01:35:54.312Z,22.60
2023-09-10T01:39:00.636Z,22.60
2023-09-10T01:41:48.053Z,22.60
2023-09-10T01:44:37.195Z,22.60
2023-09-10T01:47:22.585Z,22.50
2023-09-10T01:50:08.331Z,22.50
2023-09-10T01:52:53.946Z,22.50
2023-09-10T01:55:39.577Z,22.50
2023-09-10T01:58:25.454Z,22.50
2023-09-10T02:01:10.925Z,22.50
2023-09-10T02:03:56.841Z,22.50
2023-09-10T02:06:42.647Z,22.50
2023-09-10T02:09:28.357Z,22.40
2023-09-10T02:12:14.162Z,22.40
2023-09-10T02:14:59.887Z,22.30
2023-09-10T02:17:47.178Z,22.30
2023-09-10T02:20:37.363Z,22.30
2023-09-10T02:23:23.439Z,22.30
2023-09-10T02:26:09.237Z,22.30
2023-09-10T02:28:54.712Z,22.20
2023-09-10T02:31:40.477Z,22.20
2023-09-10T02:34:26.036Z,22.20
2023-09-10T02:37:12.979Z,22.10
2023-09-10T02:39:58.467Z,22.10
2023-09-10T02:42:44.274Z,22.10
2023-09-10T02:45:29.934Z,22.10
2023-09-10T02:48:15.995Z,22.10
2023-09-10T02:51:01.686Z,22.10
2023-09-10T02:53:49.604Z,22.00
2023-09-10T02:56:35.244Z,22.00
2023-09-10T02:59:25.771Z,22.00
2023-09-10T03:02:11.432Z,21.90
2023-09-10T03:04:57.342Z,21.90
2023-09-10T03:07:43.048Z,21.90
2023-09-10T03:10:28.867Z,21.90
2023-09-10T03:13:14.681Z,21.90
2023-09-10T03:16:00.516Z,21.80
2023-09-10T03:18:46.443Z,21.80
2023-09-10T03:21:32.364Z,21.80
2023-09-10T03:24:18.526Z,21.80
2023-09-10T03:27:04.515Z,21.80
2023-09-10T03:29:50.080Z,21.80
2023-09-10T03:32:36.056Z,21.70
2023-09-10T03:35:21.630Z,21.60
2023-09-10T03:38:07.954Z,21.70
2023-09-10T03:40:53.452Z,21.70
2023-09-10T03:43:39.418Z,21.60
2023-09-10T03:46:25.005Z,21.50
2023-09-10T03:49:10.503Z,21.50
2023-09-10T03:51:59.929Z,21.50
2023-09-10T03:54:45.780Z,21.50
2023-09-10T03:57:31.473Z,21.50
2023-09-10T04:00:17.236Z,21.40
2023-09-10T04:03:03.989Z,21.50
2023-09-10T04:05:49.516Z,21.50
2023-09-10T04:08:34.791Z,21.40
2023-09-10T04:11:20.342Z,21.30
2023-09-10T04:14:06.033Z,21.30
2023-09-10T04:16:51.881Z,21.30
2023-09-10T04:19:37.420Z,21.40
2023-09-10T04:22:23.182Z,21.30
2023-09-10T04:25:09.185Z,21.30
2023-09-10T04:27:55.236Z,21.20
2023-09-10T04:30:41.233Z,21.20
2023-09-10T04:33:27.283Z,21.20
2023-09-10T04:36:13.057Z,21.20
2023-09-10T04:38:58.822Z,21.00
2023-09-10T04:41:44.962Z,21.00
2023-09-10T04:44:30.359Z,21.10
2023-09-10T04:47:15.692Z,21.10
2023-09-10T04:50:01.415Z,21.10
2023-09-10T04:52:48.147Z,21.00
2023-09-10T04:55:33.970Z,21.00
2023-09-10T04:58:19.783Z,21.00
2023-09-10T05:01:05.288Z,21.00
2023-09-10T05:03:51.224Z,21.00
2023-09-10T05:06:37.095Z,21.00
2023-09-10T05:09:22.910Z,21.10
2023-09-10T05:12:08.772Z,21.10
2023-09-10T05:14:54.629Z,21.10
2023-09-10T05:17:40.606Z,21.10
2023-09-10T05:20:26.358Z,21.20
2023-09-10T05:23:12.003Z,21.10
2023-09-10T05:26:01.363Z,21.10
2023-09-10T05:28:47.627Z,21.00
2023-09-10T05:31:33.473Z,21.00
2023-09-10T05:34:19.328Z,21.00
2023-09-10T05:37:04.940Z,21.00
2023-09-10T05:39:51.671Z,21.10
2023-09-10T05:42:37.553Z,21.10
2023-09-10T05:45:23.248Z,21.10
2023-09-10T05:48:08.856Z,21.10
2023-09-10T05:50:58.070Z,21.10
2023-09-10T05:53:45.922Z,21.20
2023-09-10T05:56:31.519Z,21.00
2023-09-10T05:59:17.254Z,20.90
2023-09-10T06:02:03.187Z,20.90
2023-09-10T06:04:49.134Z,20.90
2023-09-10T06:07:36.851Z,20.90
2023-09-10T06:10:22.619Z,21.00
2023-09-10T06:13:08.252Z,21.10
2023-09-10T06:15:54.040Z,21.20
2023-09-10T06:18:39.962Z,21.20
2023-09-10T06:21:25.531Z,21.10
2023-09-10T06:24:11.179Z,21.10
2023-09-10T06:26:57.846Z,21.10
2023-09-10T06:29:44.370Z,21.10
2023-09-10T06:32:30.052Z,21.10
2023-09-10T06:35:16.258Z,21.10
2023-09-10T06:38:01.943Z,21.20
2023-09-10T06:40:47.430Z,21.60
2023-09-10T06:43:32.860Z,21.80
2023-09-10T06:46:28.806Z,21.80
2023-09-10T06:49:14.130Z,21.70
2023-09-10T06:52:00.008Z,21.70
2023-09-10T06:54:45.574Z,21.60
2023-09-10T06:57:31.970Z,21.50
2023-09-10T07:00:17.669Z,21.50
2023-09-10T07:03:07.253Z,21.50
2023-09-10T07:05:53.152Z,21.50
2023-09-10T07:08:39.076Z,21.60
2023-09-10T07:11:25.297Z,21.70
2023-09-10T07:14:10.788Z,21.70
2023-09-10T07:16:56.707Z,21.70
2023-09-10T07:19:42.605Z,21.80
2023-09-10T07:22:28.105Z,21.80
2023-09-10T07:25:14.044Z,21.90
2023-09-10T07:27:59.816Z,22.00
2023-09-10T07:30:45.953Z,22.00
2023-09-10T07:33:31.226Z,22.00
2023-09-10T07:36:16.893Z,22.20
2023-09-10T07:39:02.704Z,22.30
2023-09-10T07:41:48.216Z,22.30
2023-09-10T07:44:33.894Z,22.40
2023-09-10T07:47:19.807Z,22.50
2023-09-10T07:50:05.877Z,22.60
2023-09-10T07:52:51.317Z,22.60
2023-09-10T07:55:37.230Z,22.70
2023-09-10T07:58:22.877Z,22.80
2023-09-10T08:01:08.588Z,22.90
2023-09-10T08:03:54.520Z,23.00
2023-09-10T08:06:40.171Z,23.00
2023-09-10T08:09:25.917Z,23.10
2023-09-10T08:12:11.984Z,23.30
2023-09-10T08:14:57.257Z,23.40
2023-09-10T08:17:43.175Z,23.40
2023-09-10T08:20:28.932Z,23.60
2023-09-10T08:23:14.659Z,23.60
2023-09-10T08:26:00.252Z,23.70
2023-09-10T08:28:46.172Z,23.80
2023-09-10T08:31:32.845Z,23.90
2023-09-10T08:34:18.522Z,24.00
2023-09-10T08:37:07.103Z,24.10
2023-09-10T08:39:52.620Z,24.20
2023-09-10T08:42:47.345Z,24.30
2023-09-10T08:45:33.052Z,24.40
2023-09-10T08:48:19.696Z,24.40
2023-09-10T08:51:05.646Z,24.40
2023-09-10T08:53:52.123Z,24.50
2023-09-10T08:56:38.164Z,24.60
2023-09-10T08:59:24.601Z,24.70
2023-09-10T09:02:11.036Z,24.80
2023-09-10T09:04:56.872Z,24.90
2023-09-10T09:07:56.979Z,25.00
2023-09-10T09:10:43.149Z,25.10
2023-09-10T09:13:29.186Z,25.20
2023-09-10T09:16:16.223Z,25.20
2023-09-10T09:19:09.821Z,25.20
2023-09-10T09:21:55.628Z,25.30
2023-09-10T09:24:41.626Z,25.40
2023-09-10T09:27:27.521Z,25.40
2023-09-10T09:30:12.865Z,25.40
2023-09-10T09:32:58.428Z,25.50
2023-09-10T09:35:45.357Z,25.50
2023-09-10T09:38:30.926Z,25.60
2023-09-10T09:41:17.105Z,25.60
2023-09-10T09:44:03.238Z,25.70
2023-09-10T09:46:49.484Z,25.80
2023-09-10T09:49:43.103Z,25.80
2023-09-10T09:52:29.156Z,25.90
2023-09-10T09:55:14.666Z,26.00
2023-09-10T09:57:59.988Z,26.00
2023-09-10T10:00:45.702Z,26.10
2023-09-10T10:03:33.492Z,26.10
2023-09-10T10:06:19.211Z,26.20
2023-09-10T10:09:04.716Z,26.30
2023-09-10T10:11:51.164Z,26.30
2023-09-10T10:14:37.417Z,26.40
2023-09-10T10:17:24.131Z,26.50
2023-09-10T10:20:10.187Z,26.50
2023-09-10T10:22:56.401Z,26.60
2023-09-10T10:25:42.492Z,26.70
2023-09-10T10:28:28.860Z,26.70
2023-09-10T10:31:18.484Z,26.80
2023-09-10T10:34:10.107Z,26.90
2023-09-10T10:37:07.873Z,26.90
2023-09-10T10:40:12.195Z,27.00
2023-09-10T10:43:06.995Z,27.10
2023-09-10T10:45:55.133Z,27.10
2023-09-10T10:48:40.990Z,27.20
2023-09-10T10:51:28.713Z,27.30
2023-09-10T10:54:19.066Z,27.30
2023-09-10T10:57:07.439Z,27.40
2023-09-10T10:59:53.233Z,27.50
2023-09-10T11:02:38.834Z,27.50
2023-09-10T11:05:24.375Z,27.60
2023-09-10T11:08:25.757Z,27.60
2023-09-10T11:11:31.386Z,27.70
2023-09-10T11:14:17.141Z,27.80
2023-09-10T11:17:21.935Z,27.80
2023-09-10T11:20:08.117Z,27.90
2023-09-10T11:23:13.253Z,27.90
2023-09-10T11:26:14.426Z,28.00
2023-09-10T11:29:01.184Z,28.00
2023-09-10T11:31:47.501Z,28.10
2023-09-10T11:34:33.690Z,28.10
2023-09-10T11:37:21.884Z,28.30
2023-09-10T11:40:07.625Z,28.20
2023-09-10T11:42:53.197Z,28.20
2023-09-10T11:45:38.519Z,28.30
2023-09-10T11:48:24.182Z,28.30
2023-09-10T11:51:10.714Z,28.30
2023-09-10T11:53:56.220Z,28.40
2023-09-10T11:56:41.959Z,28.40
2023-09-10T11:59:30.235Z,28.40
2023-09-10T12:02:15.864Z,28.50
2023-09-10T12:05:03.385Z,28.50
2023-09-10T12:07:48.749Z,28.50
2023-09-10T12:10:34.583Z,28.60
2023-09-10T12:13:20.376Z,28.60
2023-09-10T12:16:07.866Z,28.70
2023-09-10T12:18:54.327Z,28.70
2023-09-10T12:21:41.840Z,27.40
2023-09-10T12:24:27.175Z,28.80
2023-09-10T12:27:14.440Z,28.80
2023-09-10T12:29:59.979Z,28.90
2023-09-10T12:32:45.909Z,28.90
2023-09-10T12:35:31.774Z,28.90
2023-09-10T12:38:17.775Z,29.00
2023-09-10T12:41:03.314Z,29.00
2023-09-10T12:43:48.972Z,29.00
2023-09-10T12:46:35.340Z,29.10
2023-09-10T12:49:21.206Z,29.20
2023-09-10T12:52:06.870Z,29.20
2023-09-10T12:54:52.552Z,29.20
2023-09-10T12:57:38.815Z,29.30
2023-09-10T13:00:27.686Z,29.30
2023-09-10T13:03:13.605Z,29.30
2023-09-10T13:05:59.273Z,29.40
2023-09-10T13:08:44.584Z,29.40
2023-09-10T13:11:30.546Z,27.00
2023-09-10T13:14:16.211Z,29.60
2023-09-10T13:17:02.081Z,29.70
2023-09-10T13:19:47.561Z,29.70
2023-09-10T13:22:33.148Z,29.80
2023-09-10T13:25:19.185Z,29.90
2023-09-10T13:28:05.154Z,29.90
2023-09-10T13:30:50.876Z,30.00
2023-09-10T13:33:36.269Z,30.10
2023-09-10T13:36:21.996Z,30.20
2023-09-10T13:39:08.019Z,30.30
2023-09-10T13:41:53.580Z,30.40
2023-09-10T13:44:39.238Z,30.40
2023-09-10T13:47:25.109Z,30.50
2023-09-10T13:50:12.854Z,30.60
2023-09-10T13:52:58.532Z,30.60
2023-09-10T13:55:44.213Z,30.70
2023-09-10T13:58:29.535Z,30.80
2023-09-10T14:01:15.565Z,30.90
2023-09-10T14:04:01.338Z,31.00
2023-09-10T14:06:46.862Z,31.10
2023-09-10T14:09:32.721Z,31.20
2023-09-10T14:12:18.191Z,31.20
2023-09-10T14:15:03.615Z,31.30
2023-09-10T14:17:49.024Z,31.40
2023-09-10T14:20:34.878Z,31.40
2023-09-10T14:23:20.557Z,31.50
2023-09-10T14:26:06.332Z,31.60
2023-09-10T14:28:51.852Z,31.60
2023-09-10T14:31:37.684Z,31.70
2023-09-10T14:34:23.322Z,31.70
2023-09-10T14:37:08.913Z,31.80
2023-09-10T14:39:54.563Z,31.80
2023-09-10T14:42:40.461Z,31.80
2023-09-10T14:45:26.432Z,31.90
2023-09-10T14:48:12.044Z,31.90
2023-09-10T14:50:57.778Z,32.00
2023-09-10T14:53:43.675Z,32.00
2023-09-10T14:56:29.557Z,32.00
2023-09-10T14:59:15.381Z,32.00
2023-09-10T15:02:01.220Z,31.90
2023-09-10T15:04:47.317Z,32.00
2023-09-10T15:07:32.595Z,31.90
2023-09-10T15:10:18.009Z,31.90
2023-09-10T15:13:03.620Z,31.80
2023-09-10T15:15:49.134Z,31.80
2023-09-10T15:18:34.878Z,31.80
2023-09-10T15:21:20.301Z,31.70
2023-09-10T15:24:06.945Z,31.70
2023-09-10T15:26:52.605Z,31.80
2023-09-10T15:29:38.557Z,31.80
2023-09-10T15:32:24.927Z,31.80
2023-09-10T15:35:10.784Z,31.90
2023-09-10T15:37:56.421Z,31.90
2023-09-10T15:40:44.473Z,31.90
2023-09-10T15:43:31.235Z,31.80
2023-09-10T15:46:17.240Z,31.80
2023-09-10T15:49:03.724Z,31.80
2023-09-10T15:51:50.384Z,31.80
2023-09-10T15:54:36.932Z,31.80
2023-09-10T15:57:22.720Z,31.80
2023-09-10T16:00:08.718Z,31.70
2023-09-10T16:02:54.319Z,31.60
2023-09-10T16:05:41.225Z,31.60
2023-09-10T16:08:29.599Z,31.60
2023-09-10T16:11:15.318Z,31.60
2023-09-10T16:14:01.720Z,31.50
2023-09-10T16:16:47.199Z,31.40
2023-09-10T16:19:32.943Z,31.40
2023-09-10T16:22:20.825Z,31.30
2023-09-10T16:25:06.582Z,31.20
2023-09-10T16:27:52.213Z,31.20
2023-09-10T16:30:37.986Z,31.10
2023-09-10T16:33:23.973Z,31.00
2023-09-10T16:36:09.629Z,31.00
2023-09-10T16:38:56.164Z,30.80
2023-09-10T16:41:42.569Z,30.80
2023-09-10T16:44:30.206Z,30.70
2023-09-10T16:47:16.096Z,30.60
2023-09-10T16:50:02.022Z,30.50
2023-09-10T16:52:47.460Z,30.40
2023-09-10T16:55:34.570Z,30.30
2023-09-10T16:58:20.950Z,30.30
2023-09-10T17:01:07.009Z,30.20
2023-09-10T17:03:52.508Z,30.10
2023-09-10T17:06:39.522Z,30.10
2023-09-10T17:09:24.951Z,29.30
2023-09-10T17:12:10.344Z,29.90
2023-09-10T17:14:55.819Z,29.90
2023-09-10T17:17:41.209Z,29.80
2023-09-10T17:20:27.427Z,29.70
2023-09-10T17:23:13.182Z,29.70
2023-09-10T17:26:03.001Z,29.70
2023-09-10T17:28:48.986Z,29.60
2023-09-10T17:31:34.403Z,29.60
2023-09-10T17:34:20.115Z,29.70
2023-09-10T17:37:05.854Z,29.60
2023-09-10T17:39:53.943Z,29.60
2023-09-10T17:42:39.346Z,29.60
2023-09-10T17:45:28.635Z,29.60
2023-09-10T17:48:14.082Z,29.60
2023-09-10T17:51:04.541Z,29.60
2023-09-10T17:53:49.949Z,29.60
2023-09-10T17:56:35.512Z,29.60
2023-09-10T17:59:21.091Z,29.50
2023-09-10T18:02:06.994Z,29.60
2023-09-10T18:04:52.754Z,29.50
2023-09-10T18:07:38.667Z,29.50
2023-09-10T18:10:24.469Z,29.50
2023-09-10T18:13:10.020Z,29.50
2023-09-10T18:15:55.851Z,29.40
2023-09-10T18:18:41.527Z,29.40
2023-09-10T18:21:27.351Z,29.40
2023-09-10T18:24:13.333Z,29.30
2023-09-10T18:26:59.026Z,29.30
2023-09-10T18:29:44.583Z,29.20
2023-09-10T18:32:29.969Z,29.10
2023-09-10T18:35:15.900Z,29.10
2023-09-10T18:38:04.040Z,28.90
2023-09-10T18:40:49.617Z,28.70
2023-09-10T18:43:35.649Z,28.70
2023-09-10T18:46:21.109Z,28.60
2023-09-10T18:49:06.667Z,28.60
2023-09-10T18:52:08.489Z,28.40
2023-09-10T18:54:55.986Z,28.30
2023-09-10T18:57:41.333Z,28.10
2023-09-10T19:00:27.084Z,28.10
2023-09-10T19:03:12.826Z,28.00
2023-09-10T19:05:59.817Z,27.90
2023-09-10T19:08:45.536Z,27.90
2023-09-10T19:11:31.271Z,27.70
2023-09-10T19:14:16.987Z,27.80
2023-09-10T19:17:02.685Z,27.70
2023-09-10T19:19:48.776Z,27.50
2023-09-10T19:22:35.274Z,27.50
2023-09-10T19:25:20.845Z,27.40
2023-09-10T19:28:06.880Z,27.30
2023-09-10T19:30:54.107Z,27.30
2023-09-10T19:33:40.100Z,27.20
2023-09-10T19:36:25.946Z,27.10
2023-09-10T19:39:24.754Z,27.00
2023-09-10T19:42:10.186Z,26.90
2023-09-10T19:44:55.918Z,26.90
2023-09-10T19:47:42.252Z,26.90
2023-09-10T19:50:27.771Z,26.90
2023-09-10T19:53:13.489Z,26.80
2023-09-10T19:55:59.882Z,26.70
2023-09-10T19:59:02.994Z,26.60
2023-09-10T20:01:48.996Z,26.60
2023-09-10T20:04:34.223Z,26.60
2023-09-10T20:07:19.912Z,26.60
2023-09-10T20:10:05.694Z,26.60
2023-09-10T20:12:51.074Z,26.60
2023-09-10T20:15:36.204Z,26.50
2023-09-10T20:18:21.895Z,26.50
2023-09-10T20:21:07.684Z,26.50
2023-09-10T20:23:53.356Z,26.40
2023-09-10T20:26:39.167Z,26.40
2023-09-10T20:29:24.803Z,26.40
2023-09-10T20:32:12.916Z,26.30
2023-09-10T20:34:58.607Z,26.30
2023-09-10T20:37:44.323Z,26.20
2023-09-10T20:40:29.677Z,26.20
2023-09-10T20:43:14.869Z,26.20
2023-09-10T20:46:00.538Z,26.10
2023-09-10T20:48:46.236Z,26.10
2023-09-10T20:51:34.632Z,26.10
2023-09-10T20:54:20.384Z,26.10
2023-09-10T20:57:07.292Z,26.00
2023-09-10T20:59:53.712Z,26.00
2023-09-10T21:02:39.191Z,25.90
2023-09-10T21:05:25.145Z,25.90
2023-09-10T21:08:10.921Z,25.80
2023-09-10T21:10:57.069Z,25.80
2023-09-10T21:13:43.070Z,25.90
2023-09-10T21:16:28.689Z,25.80
2023-09-10T21:19:14.465Z,25.90
2023-09-10T21:21:59.604Z,25.90
2023-09-10T21:24:45.396Z,25.80
2023-09-10T21:27:31.159Z,25.80
2023-09-10T21:30:16.834Z,25.80
2023-09-10T21:33:02.808Z,25.80
2023-09-10T21:35:50.299Z,25.80
2023-09-10T21:38:35.654Z,25.80
2023-09-10T21:41:21.575Z,25.60
2023-09-10T21:44:07.208Z,25.60
2023-09-10T21:46:53.055Z,25.60
2023-09-10T21:49:38.222Z,25.60
2023-09-10T21:52:24.249Z,25.50
2023-09-10T21:55:09.675Z,25.50
2023-09-10T21:57:55.312Z,25.30
2023-09-10T22:00:41.099Z,25.30
2023-09-10T22:03:26.905Z,25.20
2023-09-10T22:06:12.581Z,25.20
2023-09-10T22:08:58.129Z,25.10
2023-09-10T22:11:43.618Z,25.10
2023-09-10T22:14:29.326Z,25.00
2023-09-10T22:17:15.101Z,25.00
2023-09-10T22:20:00.892Z,24.80
2023-09-10T22:22:46.064Z,24.80
2023-09-10T22:25:31.760Z,24.80
2023-09-10T22:28:19.996Z,24.70
2023-09-10T22:31:06.347Z,24.80
2023-09-10T22:33:52.077Z,24.80
2023-09-10T22:36:39.104Z,24.80
2023-09-10T22:39:25.120Z,24.80
2023-09-10T22:42:10.629Z,24.80
2023-09-10T22:44:56.470Z,24.70
2023-09-10T22:47:43.132Z,24.70
2023-09-10T22:50:28.901Z,24.60
2023-09-10T22:53:15.363Z,24.50
2023-09-10T22:56:00.785Z,24.40
2023-09-10T22:58:47.780Z,24.40
2023-09-10T23:01:34.338Z,24.50
2023-09-10T23:04:19.756Z,24.50
2023-09-10T23:07:04.985Z,24.40
2023-09-10T23:09:50.433Z,24.40
2023-09-10T23:12:36.135Z,24.40
2023-09-10T23:15:21.783Z,24.20
2023-09-10T23:18:07.395Z,24.20
2023-09-10T23:20:53.212Z,24.20
2023-09-10T23:23:42.029Z,24.20
2023-09-10T23:26:28.027Z,24.20
2023-09-10T23:29:14.065Z,24.20
2023-09-10T23:32:01.427Z,24.10
2023-09-10T23:34:47.097Z,24.00
2023-09-10T23:37:33.048Z,24.00
2023-09-10T23:40:18.282Z,24.00
2023-09-10T23:43:04.061Z,24.00
2023-09-10T23:45:49.791Z,23.90
2023-09-10T23:48:35.626Z,23.90
2023-09-10T23:51:21.740Z,23.90
2023-09-10T23:54:07.703Z,23.80
2023-09-10T23:56:53.042Z,23.80
2023-09-10T23:59:38.886Z,23.80
